EDDF

Frankfurt am Main International Airport

Frankfurt-am-Main, Germany
TAF EDDF 181700Z 1818/1924 33008KT CAVOK BECMG 1818/1821 03006KT
Issued Valid From Valid To
Jul-18 @ 17:00 UTC
(5 hours ago)
Jul-18 @ 18:00 UTC
(4 hours ago)
Jul-20 @ 00:00 UTC
(-1 days ago)
Jul-18 @ 18:00 to Jul-20 @ 00:00
TAF EDDF 181700Z 1818/1924 33008KT CAVOK
Wind Visibility Clouds Conditions
330° at 8 knots 10,000+ meters
  • No significant clouds
Becoming Jul-18 @ 18:00 to Jul-20 @ 00:00
BECMG 1818/1821 03006KT
Wind Visibility Clouds Conditions
30° at 6 knots 10,000+ meters
  • No significant clouds
TAF EDDF 181700Z 1818/1924 33008KT CAVOK BECMG 1818/1821 03006KT
Issued Jul-18 @ 17:00 UTC
(5 hours ago)
Valid From Jul-18 @ 18:00 UTC
(4 hours ago)
Valid To Jul-20 @ 00:00 UTC
(-1 days ago)
Jul-18 @ 18:00 - Jul-20 @ 00:00
Wind Visibility
330° at 8 knots 10,000+ meters
Clouds
  • No significant clouds
Conditions
Becoming Jul-18 @ 18:00 - Jul-20 @ 00:00
Wind Visibility
30° at 6 knots 10,000+ meters
Clouds
  • No significant clouds
Conditions